TNCE METAR and TAF | Updated Today

TNCE METAR

F. D. Roosevelt Airport

Observation time: 68:46 hr. ago

TNCE 270055Z AUTO 07016KT //// // ///////// 28/24 Q1014 RE//

Need help? Read our tutorial on how to read METARs or read the parsed version below.

F. D. Roosevelt Airport (TNCE) METAR

  • Weather conditions on Tue, 27 Sep 2022 00:55:00 +0000 (68:46 hr. ago):
  • Present conditions: Dry
  • Clouds: Clear skies
  • Visibility:
  • Wind: 70 degrees at 16 knots
  • Temperature: 28 celsius
  • Dew point: 24 celsius
  • Pressure: 1014 millibars
  • Remarks: None


Useful to know...